sensor_id;sensor_type;location;lat;lon;timestamp;temperature;humidity
5419;DHT22;2732;52.092;11.556;2023-07-13T00:02:19;17.80;80.90
5419;DHT22;2732;52.092;11.556;2023-07-13T00:07:22;17.70;81.70
5419;DHT22;2732;52.092;11.556;2023-07-13T00:12:30;17.70;82.30
5419;DHT22;2732;52.092;11.556;2023-07-13T00:17:32;17.60;83.00
5419;DHT22;2732;52.092;11.556;2023-07-13T00:22:33;17.50;83.70
5419;DHT22;2732;52.092;11.556;2023-07-13T00:27:33;17.40;83.80
5419;DHT22;2732;52.092;11.556;2023-07-13T00:32:35;17.40;84.40
5419;DHT22;2732;52.092;11.556;2023-07-13T00:37:36;17.40;84.10
5419;DHT22;2732;52.092;11.556;2023-07-13T00:42:36;17.30;84.40
5419;DHT22;2732;52.092;11.556;2023-07-13T00:47:38;17.30;84.90
5419;DHT22;2732;52.092;11.556;2023-07-13T00:52:45;17.20;85.40
5419;DHT22;2732;52.092;11.556;2023-07-13T00:57:46;17.20;85.90
5419;DHT22;2732;52.092;11.556;2023-07-13T01:02:48;17.10;86.30
5419;DHT22;2732;52.092;11.556;2023-07-13T01:07:51;17.10;86.70
5419;DHT22;2732;52.092;11.556;2023-07-13T01:12:53;17.00;87.00
5419;DHT22;2732;52.092;11.556;2023-07-13T01:17:54;17.00;87.70
5419;DHT22;2732;52.092;11.556;2023-07-13T01:22:55;16.90;88.20
5419;DHT22;2732;52.092;11.556;2023-07-13T01:27:56;16.80;88.40
5419;DHT22;2732;52.092;11.556;2023-07-13T01:32:56;16.80;88.80
5419;DHT22;2732;52.092;11.556;2023-07-13T01:37:57;16.70;89.20
5419;DHT22;2732;52.092;11.556;2023-07-13T01:42:58;16.70;89.30
5419;DHT22;2732;52.092;11.556;2023-07-13T01:47:59;16.70;89.80
5419;DHT22;2732;52.092;11.556;2023-07-13T01:53:02;16.60;90.20
5419;DHT22;2732;52.092;11.556;2023-07-13T01:58:04;16.60;90.60
5419;DHT22;2732;52.092;11.556;2023-07-13T02:03:05;16.60;90.80
5419;DHT22;2732;52.092;11.556;2023-07-13T02:08:06;16.50;90.90
5419;DHT22;2732;52.092;11.556;2023-07-13T02:13:07;16.50;90.80
5419;DHT22;2732;52.092;11.556;2023-07-13T02:18:08;16.50;91.10
5419;DHT22;2732;52.092;11.556;2023-07-13T02:23:08;16.50;91.10
5419;DHT22;2732;52.092;11.556;2023-07-13T02:28:09;16.50;91.20
5419;DHT22;2732;52.092;11.556;2023-07-13T02:33:09;16.50;91.30
5419;DHT22;2732;52.092;11.556;2023-07-13T02:38:10;16.50;91.40
5419;DHT22;2732;52.092;11.556;2023-07-13T02:43:11;16.50;91.60
5419;DHT22;2732;52.092;11.556;2023-07-13T02:48:13;16.40;91.60
5419;DHT22;2732;52.092;11.556;2023-07-13T02:53:14;16.40;91.90
5419;DHT22;2732;52.092;11.556;2023-07-13T02:58:15;16.30;92.10
5419;DHT22;2732;52.092;11.556;2023-07-13T03:03:18;16.30;92.20
5419;DHT22;2732;52.092;11.556;2023-07-13T03:08:19;16.30;92.30
5419;DHT22;2732;52.092;11.556;2023-07-13T03:13:19;16.30;92.60
5419;DHT22;2732;52.092;11.556;2023-07-13T03:18:21;16.30;92.60
5419;DHT22;2732;52.092;11.556;2023-07-13T03:23:23;16.30;92.50
5419;DHT22;2732;52.092;11.556;2023-07-13T03:28:25;16.30;92.60
5419;DHT22;2732;52.092;11.556;2023-07-13T03:33:25;16.20;92.80
5419;DHT22;2732;52.092;11.556;2023-07-13T03:38:26;16.20;93.00
5419;DHT22;2732;52.092;11.556;2023-07-13T03:43:27;16.20;93.20
5419;DHT22;2732;52.092;11.556;2023-07-13T03:48:28;16.30;93.10
5419;DHT22;2732;52.092;11.556;2023-07-13T03:53:28;16.30;93.20
5419;DHT22;2732;52.092;11.556;2023-07-13T03:58:32;16.30;93.60
5419;DHT22;2732;52.092;11.556;2023-07-13T04:03:34;16.30;93.60
5419;DHT22;2732;52.092;11.556;2023-07-13T04:08:36;16.30;93.60
5419;DHT22;2732;52.092;11.556;2023-07-13T04:13:37;16.40;93.70
5419;DHT22;2732;52.092;11.556;2023-07-13T04:18:38;16.50;94.10
5419;DHT22;2732;52.092;11.556;2023-07-13T04:23:39;16.60;94.10
5419;DHT22;2732;52.092;11.556;2023-07-13T04:28:41;16.70;94.60
5419;DHT22;2732;52.092;11.556;2023-07-13T04:33:43;16.80;94.90
5419;DHT22;2732;52.092;11.556;2023-07-13T04:38:44;16.90;94.60
5419;DHT22;2732;52.092;11.556;2023-07-13T04:43:45;17.00;94.60
5419;DHT22;2732;52.092;11.556;2023-07-13T04:48:46;17.10;94.70
5419;DHT22;2732;52.092;11.556;2023-07-13T04:53:47;17.20;94.80
5419;DHT22;2732;52.092;11.556;2023-07-13T04:58:47;17.30;95.00
5419;DHT22;2732;52.092;11.556;2023-07-13T05:03:48;17.40;95.10
5419;DHT22;2732;52.092;11.556;2023-07-13T05:08:48;17.50;95.20
5419;DHT22;2732;52.092;11.556;2023-07-13T05:13:49;17.50;95.60
5419;DHT22;2732;52.092;11.556;2023-07-13T05:18:49;17.50;95.40
5419;DHT22;2732;52.092;11.556;2023-07-13T05:23:50;17.60;95.30
5419;DHT22;2732;52.092;11.556;2023-07-13T05:28:51;17.80;95.30
5419;DHT22;2732;52.092;11.556;2023-07-13T05:33:52;17.90;95.30
5419;DHT22;2732;52.092;11.556;2023-07-13T05:38:52;18.10;95.20
5419;DHT22;2732;52.092;11.556;2023-07-13T05:43:53;18.20;95.00
5419;DHT22;2732;52.092;11.556;2023-07-13T05:48:53;18.30;94.90
5419;DHT22;2732;52.092;11.556;2023-07-13T05:53:54;18.50;94.80
5419;DHT22;2732;52.092;11.556;2023-07-13T05:58:55;18.70;94.60
5419;DHT22;2732;52.092;11.556;2023-07-13T06:03:57;18.90;94.40
5419;DHT22;2732;52.092;11.556;2023-07-13T06:08:57;19.00;94.20
5419;DHT22;2732;52.092;11.556;2023-07-13T06:13:58;19.10;94.10
5419;DHT22;2732;52.092;11.556;2023-07-13T06:18:58;19.10;93.90
5419;DHT22;2732;52.092;11.556;2023-07-13T06:23:59;19.10;93.70
5419;DHT22;2732;52.092;11.556;2023-07-13T06:29:00;19.30;93.60
5419;DHT22;2732;52.092;11.556;2023-07-13T06:34:02;19.40;92.90
5419;DHT22;2732;52.092;11.556;2023-07-13T06:39:03;19.50;92.90
5419;DHT22;2732;52.092;11.556;2023-07-13T06:44:04;19.50;92.30
5419;DHT22;2732;52.092;11.556;2023-07-13T06:49:05;19.50;92.30
5419;DHT22;2732;52.092;11.556;2023-07-13T06:54:05;19.50;92.40
5419;DHT22;2732;52.092;11.556;2023-07-13T06:59:06;19.50;92.60
5419;DHT22;2732;52.092;11.556;2023-07-13T07:04:07;19.50;93.00
5419;DHT22;2732;52.092;11.556;2023-07-13T07:09:07;19.60;92.90
5419;DHT22;2732;52.092;11.556;2023-07-13T07:14:09;19.60;92.80
5419;DHT22;2732;52.092;11.556;2023-07-13T07:19:09;19.70;92.70
5419;DHT22;2732;52.092;11.556;2023-07-13T07:24:10;19.80;92.10
5419;DHT22;2732;52.092;11.556;2023-07-13T07:29:11;20.00;92.60
5419;DHT22;2732;52.092;11.556;2023-07-13T07:34:11;20.30;92.10
5419;DHT22;2732;52.092;11.556;2023-07-13T07:39:12;20.80;90.90
5419;DHT22;2732;52.092;11.556;2023-07-13T07:44:12;21.60;89.50
5419;DHT22;2732;52.092;11.556;2023-07-13T07:49:13;22.20;87.20
5419;DHT22;2732;52.092;11.556;2023-07-13T07:54:14;22.80;84.70
5419;DHT22;2732;52.092;11.556;2023-07-13T07:59:15;23.40;82.90
5419;DHT22;2732;52.092;11.556;2023-07-13T08:04:15;23.80;81.00
5419;DHT22;2732;52.092;11.556;2023-07-13T08:09:16;24.00;79.90
5419;DHT22;2732;52.092;11.556;2023-07-13T08:14:17;24.30;79.00
5419;DHT22;2732;52.092;11.556;2023-07-13T08:19:18;24.20;77.40
5419;DHT22;2732;52.092;11.556;2023-07-13T08:24:23;24.30;77.50
5419;DHT22;2732;52.092;11.556;2023-07-13T08:29:24;24.90;76.10
5419;DHT22;2732;52.092;11.556;2023-07-13T08:34:25;25.30;73.50
5419;DHT22;2732;52.092;11.556;2023-07-13T08:39:25;25.70;71.50
5419;DHT22;2732;52.092;11.556;2023-07-13T08:44:52;26.00;69.90
5419;DHT22;2732;52.092;11.556;2023-07-13T08:50:14;26.10;68.60
5419;DHT22;2732;52.092;11.556;2023-07-13T08:55:35;26.70;66.10
5419;DHT22;2732;52.092;11.556;2023-07-13T09:05:59;26.20;64.70
5419;DHT22;2732;52.092;11.556;2023-07-13T09:17:08;27.00;63.80
5419;DHT22;2732;52.092;11.556;2023-07-13T09:22:16;27.60;60.80
5419;DHT22;2732;52.092;11.556;2023-07-13T09:27:29;28.10;58.60
5419;DHT22;2732;52.092;11.556;2023-07-13T09:32:32;28.80;58.00
5419;DHT22;2732;52.092;11.556;2023-07-13T09:37:34;29.40;56.00
5419;DHT22;2732;52.092;11.556;2023-07-13T09:42:36;29.50;54.20
5419;DHT22;2732;52.092;11.556;2023-07-13T09:47:40;28.80;55.80
5419;DHT22;2732;52.092;11.556;2023-07-13T09:52:46;27.90;56.70
5419;DHT22;2732;52.092;11.556;2023-07-13T09:57:48;27.60;56.10
5419;DHT22;2732;52.092;11.556;2023-07-13T10:02:58;27.60;57.00
5419;DHT22;2732;52.092;11.556;2023-07-13T10:08:00;27.70;57.20
5419;DHT22;2732;52.092;11.556;2023-07-13T10:13:03;27.50;57.10
5419;DHT22;2732;52.092;11.556;2023-07-13T10:18:09;28.40;55.50
5419;DHT22;2732;52.092;11.556;2023-07-13T10:23:15;28.80;54.30
5419;DHT22;2732;52.092;11.556;2023-07-13T10:28:30;29.10;53.30
5419;DHT22;2732;52.092;11.556;2023-07-13T10:33:33;29.50;53.40
5419;DHT22;2732;52.092;11.556;2023-07-13T10:38:34;29.40;53.10
5419;DHT22;2732;52.092;11.556;2023-07-13T10:43:39;29.30;52.60
5419;DHT22;2732;52.092;11.556;2023-07-13T10:48:47;28.90;53.90
5419;DHT22;2732;52.092;11.556;2023-07-13T10:54:16;29.40;52.70
5419;DHT22;2732;52.092;11.556;2023-07-13T10:59:27;30.10;52.20
5419;DHT22;2732;52.092;11.556;2023-07-13T11:04:39;30.20;51.30
5419;DHT22;2732;52.092;11.556;2023-07-13T11:09:43;30.10;51.90
5419;DHT22;2732;52.092;11.556;2023-07-13T11:25:35;31.10;49.00
5419;DHT22;2732;52.092;11.556;2023-07-13T11:30:40;31.10;48.60
5419;DHT22;2732;52.092;11.556;2023-07-13T11:36:00;31.10;48.40
5419;DHT22;2732;52.092;11.556;2023-07-13T11:41:10;31.50;48.30
5419;DHT22;2732;52.092;11.556;2023-07-13T11:46:15;31.50;48.10
5419;DHT22;2732;52.092;11.556;2023-07-13T11:51:29;32.00;47.60
5419;DHT22;2732;52.092;11.556;2023-07-13T11:56:34;31.50;47.50
5419;DHT22;2732;52.092;11.556;2023-07-13T12:01:36;31.50;47.30
5419;DHT22;2732;52.092;11.556;2023-07-13T12:06:44;31.70;47.10
5419;DHT22;2732;52.092;11.556;2023-07-13T12:11:46;32.00;48.80
5419;DHT22;2732;52.092;11.556;2023-07-13T12:16:47;32.30;47.40
5419;DHT22;2732;52.092;11.556;2023-07-13T12:21:50;32.70;46.10
5419;DHT22;2732;52.092;11.556;2023-07-13T12:27:05;32.70;46.00
5419;DHT22;2732;52.092;11.556;2023-07-13T12:32:08;32.60;44.30
5419;DHT22;2732;52.092;11.556;2023-07-13T12:37:12;32.70;44.50
5419;DHT22;2732;52.092;11.556;2023-07-13T12:42:23;32.50;44.80
5419;DHT22;2732;52.092;11.556;2023-07-13T12:47:28;32.80;44.30
5419;DHT22;2732;52.092;11.556;2023-07-13T12:52:34;32.90;43.70
5419;DHT22;2732;52.092;11.556;2023-07-13T13:02:50;33.00;43.70
5419;DHT22;2732;52.092;11.556;2023-07-13T13:07:51;32.50;43.60
5419;DHT22;2732;52.092;11.556;2023-07-13T13:12:52;32.70;43.50
5419;DHT22;2732;52.092;11.556;2023-07-13T13:17:53;33.00;44.40
5419;DHT22;2732;52.092;11.556;2023-07-13T13:22:54;33.20;42.20
5419;DHT22;2732;52.092;11.556;2023-07-13T13:27:55;33.50;42.00
5419;DHT22;2732;52.092;11.556;2023-07-13T13:32:56;33.70;40.40
5419;DHT22;2732;52.092;11.556;2023-07-13T13:37:56;33.70;40.40
5419;DHT22;2732;52.092;11.556;2023-07-13T13:42:57;33.70;40.90
5419;DHT22;2732;52.092;11.556;2023-07-13T13:47:57;33.40;41.70
5419;DHT22;2732;52.092;11.556;2023-07-13T13:52:59;33.00;41.30
5419;DHT22;2732;52.092;11.556;2023-07-13T13:58:00;33.40;41.20
5419;DHT22;2732;52.092;11.556;2023-07-13T14:03:00;33.20;41.00
5419;DHT22;2732;52.092;11.556;2023-07-13T14:08:04;33.60;41.20
5419;DHT22;2732;52.092;11.556;2023-07-13T14:13:04;33.80;40.70
5419;DHT22;2732;52.092;11.556;2023-07-13T14:18:10;33.10;41.80
5419;DHT22;2732;52.092;11.556;2023-07-13T14:23:16;33.60;41.20
5419;DHT22;2732;52.092;11.556;2023-07-13T14:28:26;33.40;40.60
5419;DHT22;2732;52.092;11.556;2023-07-13T14:33:27;32.70;39.80
5419;DHT22;2732;52.092;11.556;2023-07-13T14:38:28;32.50;41.10
5419;DHT22;2732;52.092;11.556;2023-07-13T14:43:28;32.30;40.70
5419;DHT22;2732;52.092;11.556;2023-07-13T14:48:30;31.80;41.40
5419;DHT22;2732;52.092;11.556;2023-07-13T14:53:30;31.70;41.80
5419;DHT22;2732;52.092;11.556;2023-07-13T14:58:31;31.60;42.20
5419;DHT22;2732;52.092;11.556;2023-07-13T15:03:32;31.40;42.50
5419;DHT22;2732;52.092;11.556;2023-07-13T15:08:33;31.30;43.70
5419;DHT22;2732;52.092;11.556;2023-07-13T15:13:35;31.40;43.90
5419;DHT22;2732;52.092;11.556;2023-07-13T15:18:35;31.10;43.20
5419;DHT22;2732;52.092;11.556;2023-07-13T15:23:41;31.10;43.40
5419;DHT22;2732;52.092;11.556;2023-07-13T15:28:44;31.10;43.10
5419;DHT22;2732;52.092;11.556;2023-07-13T15:33:47;30.80;43.50
5419;DHT22;2732;52.092;11.556;2023-07-13T15:38:51;30.40;43.90
5419;DHT22;2732;52.092;11.556;2023-07-13T15:43:57;30.20;44.50
5419;DHT22;2732;52.092;11.556;2023-07-13T15:48:58;29.80;45.00
5419;DHT22;2732;52.092;11.556;2023-07-13T15:54:03;29.40;45.70
5419;DHT22;2732;52.092;11.556;2023-07-13T15:59:05;28.60;48.40
5419;DHT22;2732;52.092;11.556;2023-07-13T16:04:09;27.90;50.10
5419;DHT22;2732;52.092;11.556;2023-07-13T16:09:20;27.20;51.30
5419;DHT22;2732;52.092;11.556;2023-07-13T16:14:24;26.80;52.50
5419;DHT22;2732;52.092;11.556;2023-07-13T16:19:25;26.70;53.70
5419;DHT22;2732;52.092;11.556;2023-07-13T16:24:29;26.40;55.00
5419;DHT22;2732;52.092;11.556;2023-07-13T16:29:31;26.40;55.60
5419;DHT22;2732;52.092;11.556;2023-07-13T16:34:34;26.40;56.10
5419;DHT22;2732;52.092;11.556;2023-07-13T16:39:36;26.60;56.50
5419;DHT22;2732;52.092;11.556;2023-07-13T16:44:37;26.80;56.70
5419;DHT22;2732;52.092;11.556;2023-07-13T16:49:39;26.80;56.30
5419;DHT22;2732;52.092;11.556;2023-07-13T16:54:40;26.50;55.50
5419;DHT22;2732;52.092;11.556;2023-07-13T16:59:43;26.30;55.30
5419;DHT22;2732;52.092;11.556;2023-07-13T17:04:46;25.90;54.30
5419;DHT22;2732;52.092;11.556;2023-07-13T17:09:46;25.60;54.70
5419;DHT22;2732;52.092;11.556;2023-07-13T17:14:47;25.30;55.60
5419;DHT22;2732;52.092;11.556;2023-07-13T17:19:50;25.10;56.40
5419;DHT22;2732;52.092;11.556;2023-07-13T17:24:52;24.80;56.90
5419;DHT22;2732;52.092;11.556;2023-07-13T17:29:53;24.60;56.90
5419;DHT22;2732;52.092;11.556;2023-07-13T17:34:54;24.40;57.10
5419;DHT22;2732;52.092;11.556;2023-07-13T17:39:56;24.10;57.30
5419;DHT22;2732;52.092;11.556;2023-07-13T17:44:57;23.90;57.90
5419;DHT22;2732;52.092;11.556;2023-07-13T17:49:58;23.70;58.40
5419;DHT22;2732;52.092;11.556;2023-07-13T17:54:59;23.70;58.80
5419;DHT22;2732;52.092;11.556;2023-07-13T18:00:04;23.60;59.00
5419;DHT22;2732;52.092;11.556;2023-07-13T18:05:29;23.40;59.10
5419;DHT22;2732;52.092;11.556;2023-07-13T18:10:32;23.30;59.80
5419;DHT22;2732;52.092;11.556;2023-07-13T18:15:33;23.20;60.30
5419;DHT22;2732;52.092;11.556;2023-07-13T18:20:34;23.00;60.60
5419;DHT22;2732;52.092;11.556;2023-07-13T18:25:37;22.90;60.90
5419;DHT22;2732;52.092;11.556;2023-07-13T18:30:38;22.70;61.10
5419;DHT22;2732;52.092;11.556;2023-07-13T18:35:39;22.50;61.60
5419;DHT22;2732;52.092;11.556;2023-07-13T18:40:41;22.30;61.80
5419;DHT22;2732;52.092;11.556;2023-07-13T18:45:43;22.10;62.40
5419;DHT22;2732;52.092;11.556;2023-07-13T18:50:44;22.00;63.20
5419;DHT22;2732;52.092;11.556;2023-07-13T18:55:45;21.80;63.60
5419;DHT22;2732;52.092;11.556;2023-07-13T19:00:52;21.70;64.30
5419;DHT22;2732;52.092;11.556;2023-07-13T19:05:58;21.50;64.80
5419;DHT22;2732;52.092;11.556;2023-07-13T19:10:59;21.30;65.70
5419;DHT22;2732;52.092;11.556;2023-07-13T19:16:00;21.10;66.40
5419;DHT22;2732;52.092;11.556;2023-07-13T19:21:07;21.00;67.10
5419;DHT22;2732;52.092;11.556;2023-07-13T19:26:27;20.90;67.20
5419;DHT22;2732;52.092;11.556;2023-07-13T19:31:33;20.80;67.50
5419;DHT22;2732;52.092;11.556;2023-07-13T19:36:36;20.70;67.90
5419;DHT22;2732;52.092;11.556;2023-07-13T19:41:45;20.60;68.20
5419;DHT22;2732;52.092;11.556;2023-07-13T19:46:48;20.40;68.60
5419;DHT22;2732;52.092;11.556;2023-07-13T19:51:50;20.30;69.60
5419;DHT22;2732;52.092;11.556;2023-07-13T19:56:51;20.20;70.00
5419;DHT22;2732;52.092;11.556;2023-07-13T20:01:52;20.20;70.50
5419;DHT22;2732;52.092;11.556;2023-07-13T20:06:54;20.10;70.60
5419;DHT22;2732;52.092;11.556;2023-07-13T20:11:54;20.00;71.00
5419;DHT22;2732;52.092;11.556;2023-07-13T20:17:03;19.90;71.20
5419;DHT22;2732;52.092;11.556;2023-07-13T20:22:16;19.80;71.90
5419;DHT22;2732;52.092;11.556;2023-07-13T20:27:17;19.70;72.70
5419;DHT22;2732;52.092;11.556;2023-07-13T20:32:18;19.60;73.00
5419;DHT22;2732;52.092;11.556;2023-07-13T20:42:37;19.40;73.50
5419;DHT22;2732;52.092;11.556;2023-07-13T20:47:39;19.30;73.90
5419;DHT22;2732;52.092;11.556;2023-07-13T20:52:40;19.20;74.80
5419;DHT22;2732;52.092;11.556;2023-07-13T20:57:42;19.00;75.10
5419;DHT22;2732;52.092;11.556;2023-07-13T21:02:45;18.90;75.40
5419;DHT22;2732;52.092;11.556;2023-07-13T21:07:47;18.80;75.80
5419;DHT22;2732;52.092;11.556;2023-07-13T21:12:50;18.70;76.10
5419;DHT22;2732;52.092;11.556;2023-07-13T21:17:55;18.60;76.90
5419;DHT22;2732;52.092;11.556;2023-07-13T21:22:57;18.50;77.80
5419;DHT22;2732;52.092;11.556;2023-07-13T21:27:59;18.40;78.30
5419;DHT22;2732;52.092;11.556;2023-07-13T21:33:00;18.30;79.20
5419;DHT22;2732;52.092;11.556;2023-07-13T21:43:32;18.00;80.50
5419;DHT22;2732;52.092;11.556;2023-07-13T21:48:33;17.90;81.10
5419;DHT22;2732;52.092;11.556;2023-07-13T21:53:33;17.80;82.20
5419;DHT22;2732;52.092;11.556;2023-07-13T21:58:34;17.60;82.70
5419;DHT22;2732;52.092;11.556;2023-07-13T22:03:37;17.50;83.70
5419;DHT22;2732;52.092;11.556;2023-07-13T22:08:38;17.40;84.60
5419;DHT22;2732;52.092;11.556;2023-07-13T22:13:39;17.40;85.40
5419;DHT22;2732;52.092;11.556;2023-07-13T22:18:41;17.30;86.40
5419;DHT22;2732;52.092;11.556;2023-07-13T22:23:42;17.20;87.40
5419;DHT22;2732;52.092;11.556;2023-07-13T22:28:45;17.20;88.30
5419;DHT22;2732;52.092;11.556;2023-07-13T22:33:50;17.10;89.00
5419;DHT22;2732;52.092;11.556;2023-07-13T22:38:51;17.10;89.20
5419;DHT22;2732;52.092;11.556;2023-07-13T22:43:53;17.00;89.10
5419;DHT22;2732;52.092;11.556;2023-07-13T22:49:12;17.00;90.00
5419;DHT22;2732;52.092;11.556;2023-07-13T22:54:18;17.00;90.60
5419;DHT22;2732;52.092;11.556;2023-07-13T22:59:19;16.90;90.60
5419;DHT22;2732;52.092;11.556;2023-07-13T23:04:28;16.90;90.90
5419;DHT22;2732;52.092;11.556;2023-07-13T23:09:31;16.90;91.10
5419;DHT22;2732;52.092;11.556;2023-07-13T23:14:32;16.80;91.40
5419;DHT22;2732;52.092;11.556;2023-07-13T23:19:34;16.80;91.40
5419;DHT22;2732;52.092;11.556;2023-07-13T23:24:35;16.80;91.80
5419;DHT22;2732;52.092;11.556;2023-07-13T23:29:36;16.70;91.90
5419;DHT22;2732;52.092;11.556;2023-07-13T23:34:37;16.70;92.10
5419;DHT22;2732;52.092;11.556;2023-07-13T23:39:38;16.60;92.30
5419;DHT22;2732;52.092;11.556;2023-07-13T23:44:38;16.60;92.50
5419;DHT22;2732;52.092;11.556;2023-07-13T23:49:39;16.60;92.90
5419;DHT22;2732;52.092;11.556;2023-07-13T23:54:40;16.60;93.30
5419;DHT22;2732;52.092;11.556;2023-07-13T23:59:41;16.60;93.50
